sensor_id;sensor_type;location;lat;lon;timestamp;pressure;altitude;pressure_sealevel;temperature;humidity
69127;BME280;56688;50.234;19.292;2023-04-03T00:00:19;98912.85;;;3.15;77.36
69127;BME280;56688;50.234;19.292;2023-04-03T00:02:46;98915.09;;;3.14;77.18
69127;BME280;56688;50.234;19.292;2023-04-03T00:05:13;98919.77;;;3.11;76.98
69127;BME280;56688;50.234;19.292;2023-04-03T00:07:40;98918.54;;;3.11;77.14
69127;BME280;56688;50.234;19.292;2023-04-03T00:10:07;98919.54;;;3.11;77.13
69127;BME280;56688;50.234;19.292;2023-04-03T00:12:34;98916.27;;;3.14;76.97
69127;BME280;56688;50.234;19.292;2023-04-03T00:15:02;98917.54;;;3.14;76.76
69127;BME280;56688;50.234;19.292;2023-04-03T00:17:29;98920.17;;;3.12;76.58
69127;BME280;56688;50.234;19.292;2023-04-03T00:19:55;98916.91;;;3.09;76.57
69127;BME280;56688;50.234;19.292;2023-04-03T00:22:22;98918.10;;;3.07;76.60
69127;BME280;56688;50.234;19.292;2023-04-03T00:24:49;98918.80;;;3.07;76.24
69127;BME280;56688;50.234;19.292;2023-04-03T00:27:16;98919.27;;;3.05;75.94
69127;BME280;56688;50.234;19.292;2023-04-03T00:29:43;98920.63;;;3.04;75.63
69127;BME280;56688;50.234;19.292;2023-04-03T00:32:10;98923.44;;;3.00;75.15
69127;BME280;56688;50.234;19.292;2023-04-03T00:34:37;98922.81;;;2.97;75.11
69127;BME280;56688;50.234;19.292;2023-04-03T00:37:04;98924.31;;;2.96;74.98
69127;BME280;56688;50.234;19.292;2023-04-03T00:39:31;98922.42;;;2.96;74.90
69127;BME280;56688;50.234;19.292;2023-04-03T00:41:58;98919.52;;;2.95;74.88
69127;BME280;56688;50.234;19.292;2023-04-03T00:47:01;98919.80;;;2.91;75.25
69127;BME280;56688;50.234;19.292;2023-04-03T00:49:29;98919.19;;;2.90;74.91
69127;BME280;56688;50.234;19.292;2023-04-03T00:51:57;98922.23;;;2.92;74.99
69127;BME280;56688;50.234;19.292;2023-04-03T00:54:25;98917.58;;;2.93;75.09
69127;BME280;56688;50.234;19.292;2023-04-03T00:56:55;98920.49;;;2.94;75.27
69127;BME280;56688;50.234;19.292;2023-04-03T00:59:27;98920.08;;;2.92;75.09
69127;BME280;56688;50.234;19.292;2023-04-03T01:01:56;98922.11;;;2.87;75.03
69127;BME280;56688;50.234;19.292;2023-04-03T01:04:28;98928.95;;;2.85;75.30
69127;BME280;56688;50.234;19.292;2023-04-03T01:06:58;98932.38;;;2.87;75.41
69127;BME280;56688;50.234;19.292;2023-04-03T01:09:28;98937.98;;;2.88;75.69
69127;BME280;56688;50.234;19.292;2023-04-03T01:12:13;98938.83;;;2.89;75.61
69127;BME280;56688;50.234;19.292;2023-04-03T01:14:43;98939.63;;;2.90;75.75
69127;BME280;56688;50.234;19.292;2023-04-03T01:17:27;98940.45;;;2.89;75.90
69127;BME280;56688;50.234;19.292;2023-04-03T01:25:23;98939.50;;;2.91;76.05
69127;BME280;56688;50.234;19.292;2023-04-03T01:27:50;98940.20;;;2.92;76.02
69127;BME280;56688;50.234;19.292;2023-04-03T01:30:19;98941.23;;;2.89;75.94
69127;BME280;56688;50.234;19.292;2023-04-03T01:32:47;98946.35;;;2.89;76.10
69127;BME280;56688;50.234;19.292;2023-04-03T01:35:13;98945.88;;;2.91;76.16
69127;BME280;56688;50.234;19.292;2023-04-03T01:37:41;98949.95;;;2.93;76.20
69127;BME280;56688;50.234;19.292;2023-04-03T01:40:09;98951.53;;;2.93;76.23
69127;BME280;56688;50.234;19.292;2023-04-03T01:42:35;98953.79;;;2.93;76.00
69127;BME280;56688;50.234;19.292;2023-04-03T01:45:03;98950.95;;;2.91;76.13
69127;BME280;56688;50.234;19.292;2023-04-03T01:47:30;98953.88;;;2.90;75.89
69127;BME280;56688;50.234;19.292;2023-04-03T01:49:57;98953.58;;;2.91;75.99
69127;BME280;56688;50.234;19.292;2023-04-03T01:52:24;98955.02;;;2.91;75.99
69127;BME280;56688;50.234;19.292;2023-04-03T01:54:51;98954.24;;;2.92;76.12
69127;BME280;56688;50.234;19.292;2023-04-03T01:57:18;98955.18;;;2.91;75.72
69127;BME280;56688;50.234;19.292;2023-04-03T01:59:45;98955.91;;;2.91;75.81
69127;BME280;56688;50.234;19.292;2023-04-03T02:02:12;98956.98;;;2.90;75.80
69127;BME280;56688;50.234;19.292;2023-04-03T02:04:41;98955.49;;;2.92;75.54
69127;BME280;56688;50.234;19.292;2023-04-03T02:07:08;98959.13;;;2.92;75.51
69127;BME280;56688;50.234;19.292;2023-04-03T02:09:35;98961.40;;;2.93;75.63
69127;BME280;56688;50.234;19.292;2023-04-03T02:12:02;98962.09;;;2.93;75.54
69127;BME280;56688;50.234;19.292;2023-04-03T02:14:29;98966.73;;;2.92;75.60
69127;BME280;56688;50.234;19.292;2023-04-03T02:16:56;98967.27;;;2.92;75.54
69127;BME280;56688;50.234;19.292;2023-04-03T02:19:23;98968.94;;;2.93;75.38
69127;BME280;56688;50.234;19.292;2023-04-03T02:21:50;98969.95;;;2.93;75.24
69127;BME280;56688;50.234;19.292;2023-04-03T02:24:17;98969.09;;;2.93;75.20
69127;BME280;56688;50.234;19.292;2023-04-03T02:26:44;98968.34;;;2.92;75.01
69127;BME280;56688;50.234;19.292;2023-04-03T02:29:11;98973.15;;;2.89;74.63
69127;BME280;56688;50.234;19.292;2023-04-03T02:31:38;98974.32;;;2.88;74.72
69127;BME280;56688;50.234;19.292;2023-04-03T02:34:04;98970.65;;;2.87;74.61
69127;BME280;56688;50.234;19.292;2023-04-03T02:36:33;98973.21;;;2.88;74.62
69127;BME280;56688;50.234;19.292;2023-04-03T02:39:02;98971.67;;;2.88;74.40
69127;BME280;56688;50.234;19.292;2023-04-03T02:41:29;98971.63;;;2.84;74.06
69127;BME280;56688;50.234;19.292;2023-04-03T02:44:04;98969.59;;;2.79;74.03
69127;BME280;56688;50.234;19.292;2023-04-03T02:46:31;98971.80;;;2.75;73.85
69127;BME280;56688;50.234;19.292;2023-04-03T02:48:58;98972.15;;;2.73;73.79
69127;BME280;56688;50.234;19.292;2023-04-03T02:51:26;98973.45;;;2.72;73.90
69127;BME280;56688;50.234;19.292;2023-04-03T02:53:53;98973.11;;;2.70;73.70
69127;BME280;56688;50.234;19.292;2023-04-03T02:56:22;98976.65;;;2.68;73.72
69127;BME280;56688;50.234;19.292;2023-04-03T02:58:49;98972.81;;;2.65;73.66
69127;BME280;56688;50.234;19.292;2023-04-03T03:01:16;98978.41;;;2.64;73.18
69127;BME280;56688;50.234;19.292;2023-04-03T03:03:43;98980.44;;;2.63;73.03
69127;BME280;56688;50.234;19.292;2023-04-03T03:06:12;98979.98;;;2.62;73.01
69127;BME280;56688;50.234;19.292;2023-04-03T03:08:40;98981.84;;;2.61;72.85
69127;BME280;56688;50.234;19.292;2023-04-03T03:11:09;98981.30;;;2.59;72.84
69127;BME280;56688;50.234;19.292;2023-04-03T03:13:36;98984.15;;;2.54;72.81
69127;BME280;56688;50.234;19.292;2023-04-03T03:16:03;98986.25;;;2.52;72.97
69127;BME280;56688;50.234;19.292;2023-04-03T03:18:30;98989.48;;;2.49;73.24
69127;BME280;56688;50.234;19.292;2023-04-03T03:20:58;98990.11;;;2.45;73.53
69127;BME280;56688;50.234;19.292;2023-04-03T03:23:26;98990.30;;;2.39;73.69
69127;BME280;56688;50.234;19.292;2023-04-03T03:25:55;98991.56;;;2.34;73.93
69127;BME280;56688;50.234;19.292;2023-04-03T03:28:23;98992.89;;;2.31;74.31
69127;BME280;56688;50.234;19.292;2023-04-03T03:30:50;98995.83;;;2.29;74.61
69127;BME280;56688;50.234;19.292;2023-04-03T03:33:18;98997.73;;;2.28;74.92
69127;BME280;56688;50.234;19.292;2023-04-03T03:35:45;98999.28;;;2.23;75.31
69127;BME280;56688;50.234;19.292;2023-04-03T03:38:12;98999.59;;;2.19;75.42
69127;BME280;56688;50.234;19.292;2023-04-03T03:40:39;99000.50;;;2.17;75.53
69127;BME280;56688;50.234;19.292;2023-04-03T03:43:06;99006.85;;;2.14;75.93
69127;BME280;56688;50.234;19.292;2023-04-03T03:45:33;99005.33;;;2.13;76.43
69127;BME280;56688;50.234;19.292;2023-04-03T03:48:01;99011.66;;;2.14;76.40
69127;BME280;56688;50.234;19.292;2023-04-03T03:50:28;99012.36;;;2.11;76.20
69127;BME280;56688;50.234;19.292;2023-04-03T03:52:55;99009.31;;;2.08;76.29
69127;BME280;56688;50.234;19.292;2023-04-03T03:55:22;99012.11;;;2.08;76.49
69127;BME280;56688;50.234;19.292;2023-04-03T03:57:51;99010.84;;;2.09;76.40
69127;BME280;56688;50.234;19.292;2023-04-03T04:00:19;99014.38;;;2.09;76.55
69127;BME280;56688;50.234;19.292;2023-04-03T04:02:49;99014.75;;;2.08;76.33
69127;BME280;56688;50.234;19.292;2023-04-03T04:05:17;99014.39;;;2.04;76.23
69127;BME280;56688;50.234;19.292;2023-04-03T04:07:44;99011.81;;;2.01;76.54
69127;BME280;56688;50.234;19.292;2023-04-03T04:10:11;99019.27;;;2.00;76.57
69127;BME280;56688;50.234;19.292;2023-04-03T04:12:38;99022.55;;;1.98;76.87
69127;BME280;56688;50.234;19.292;2023-04-03T04:15:05;99023.95;;;1.96;76.70
69127;BME280;56688;50.234;19.292;2023-04-03T04:17:32;99025.09;;;1.93;76.44
69127;BME280;56688;50.234;19.292;2023-04-03T04:20:03;99025.37;;;1.89;76.51
69127;BME280;56688;50.234;19.292;2023-04-03T04:22:32;99026.45;;;1.89;76.56
69127;BME280;56688;50.234;19.292;2023-04-03T04:24:58;99028.03;;;1.87;76.34
69127;BME280;56688;50.234;19.292;2023-04-03T04:27:26;99029.91;;;1.85;76.28
69127;BME280;56688;50.234;19.292;2023-04-03T04:29:53;99033.81;;;1.85;76.25
69127;BME280;56688;50.234;19.292;2023-04-03T04:32:21;99037.30;;;1.85;76.07
69127;BME280;56688;50.234;19.292;2023-04-03T04:34:48;99048.95;;;1.84;75.64
69127;BME280;56688;50.234;19.292;2023-04-03T04:37:15;99049.02;;;1.81;75.68
69127;BME280;56688;50.234;19.292;2023-04-03T04:39:42;99050.95;;;1.81;75.61
69127;BME280;56688;50.234;19.292;2023-04-03T04:42:09;99052.00;;;1.81;75.34
69127;BME280;56688;50.234;19.292;2023-04-03T04:44:43;99059.89;;;1.81;75.40
69127;BME280;56688;50.234;19.292;2023-04-03T04:47:12;99058.98;;;1.82;75.41
69127;BME280;56688;50.234;19.292;2023-04-03T04:49:39;99059.12;;;1.80;74.93
69127;BME280;56688;50.234;19.292;2023-04-03T04:52:06;99061.30;;;1.77;74.90
69127;BME280;56688;50.234;19.292;2023-04-03T04:54:33;99066.58;;;1.77;74.83
69127;BME280;56688;50.234;19.292;2023-04-03T04:57:01;99063.82;;;1.79;74.54
69127;BME280;56688;50.234;19.292;2023-04-03T04:59:28;99064.16;;;1.79;74.63
69127;BME280;56688;50.234;19.292;2023-04-03T05:01:56;99069.90;;;1.79;74.48
69127;BME280;56688;50.234;19.292;2023-04-03T05:04:23;99071.27;;;1.80;74.32
69127;BME280;56688;50.234;19.292;2023-04-03T05:06:54;99077.64;;;1.79;74.70
69127;BME280;56688;50.234;19.292;2023-04-03T05:09:23;99079.73;;;1.77;74.37
69127;BME280;56688;50.234;19.292;2023-04-03T05:11:51;99082.77;;;1.76;74.25
69127;BME280;56688;50.234;19.292;2023-04-03T05:14:20;99080.58;;;1.75;73.87
69127;BME280;56688;50.234;19.292;2023-04-03T05:16:48;99080.60;;;1.73;73.57
69127;BME280;56688;50.234;19.292;2023-04-03T05:19:20;99086.35;;;1.71;73.36
69127;BME280;56688;50.234;19.292;2023-04-03T05:21:48;99087.73;;;1.71;73.53
69127;BME280;56688;50.234;19.292;2023-04-03T05:24:15;99089.61;;;1.70;73.56
69127;BME280;56688;50.234;19.292;2023-04-03T05:26:43;99094.52;;;1.70;73.55
69127;BME280;56688;50.234;19.292;2023-04-03T05:29:10;99091.21;;;1.72;73.26
69127;BME280;56688;50.234;19.292;2023-04-03T05:31:37;99092.35;;;1.75;73.62
69127;BME280;56688;50.234;19.292;2023-04-03T05:34:05;99096.27;;;1.77;73.67
69127;BME280;56688;50.234;19.292;2023-04-03T05:36:33;99096.80;;;1.77;73.30
69127;BME280;56688;50.234;19.292;2023-04-03T05:39:03;99099.52;;;1.78;73.38
69127;BME280;56688;50.234;19.292;2023-04-03T05:41:30;99102.73;;;1.79;73.13
69127;BME280;56688;50.234;19.292;2023-04-03T05:43:57;99097.39;;;1.83;73.11
69127;BME280;56688;50.234;19.292;2023-04-03T05:46:24;99103.24;;;1.88;72.90
69127;BME280;56688;50.234;19.292;2023-04-03T05:48:53;99108.13;;;1.91;72.61
69127;BME280;56688;50.234;19.292;2023-04-03T05:51:24;99104.72;;;1.92;72.07
69127;BME280;56688;50.234;19.292;2023-04-03T05:54:00;99106.23;;;1.93;71.50
69127;BME280;56688;50.234;19.292;2023-04-03T05:56:29;99112.25;;;1.90;71.08
69127;BME280;56688;50.234;19.292;2023-04-03T05:58:56;99111.58;;;1.90;70.95
69127;BME280;56688;50.234;19.292;2023-04-03T06:01:23;99112.52;;;1.92;70.85
69127;BME280;56688;50.234;19.292;2023-04-03T06:03:50;99114.33;;;1.95;70.73
69127;BME280;56688;50.234;19.292;2023-04-03T06:06:17;99111.45;;;2.01;70.26
69127;BME280;56688;50.234;19.292;2023-04-03T06:08:44;99117.12;;;2.07;69.45
69127;BME280;56688;50.234;19.292;2023-04-03T06:11:13;99116.09;;;2.13;69.50
69127;BME280;56688;50.234;19.292;2023-04-03T06:13:39;99116.98;;;2.22;69.07
69127;BME280;56688;50.234;19.292;2023-04-03T06:16:06;99111.57;;;2.30;68.54
69127;BME280;56688;50.234;19.292;2023-04-03T06:18:33;99117.22;;;2.39;68.13
69127;BME280;56688;50.234;19.292;2023-04-03T06:21:01;99114.63;;;2.45;67.50
69127;BME280;56688;50.234;19.292;2023-04-03T06:23:29;99115.04;;;2.51;67.08
69127;BME280;56688;50.234;19.292;2023-04-03T06:25:56;99114.61;;;2.57;66.34
69127;BME280;56688;50.234;19.292;2023-04-03T06:28:23;99118.69;;;2.60;65.55
69127;BME280;56688;50.234;19.292;2023-04-03T06:30:51;99123.20;;;2.63;65.11
69127;BME280;56688;50.234;19.292;2023-04-03T06:33:18;99123.48;;;2.66;64.81
69127;BME280;56688;50.234;19.292;2023-04-03T06:35:45;99127.09;;;2.67;64.57
69127;BME280;56688;50.234;19.292;2023-04-03T06:38:12;99132.16;;;2.65;64.01
69127;BME280;56688;50.234;19.292;2023-04-03T06:40:39;99136.85;;;2.64;64.32
69127;BME280;56688;50.234;19.292;2023-04-03T06:43:06;99139.32;;;2.64;64.28
69127;BME280;56688;50.234;19.292;2023-04-03T06:45:33;99137.17;;;2.62;64.30
69127;BME280;56688;50.234;19.292;2023-04-03T06:48:01;99138.68;;;2.63;64.44
69127;BME280;56688;50.234;19.292;2023-04-03T06:50:27;99141.73;;;2.65;63.94
69127;BME280;56688;50.234;19.292;2023-04-03T06:52:54;99143.14;;;2.66;63.93
69127;BME280;56688;50.234;19.292;2023-04-03T06:55:21;99148.35;;;2.65;63.43
69127;BME280;56688;50.234;19.292;2023-04-03T06:57:48;99147.77;;;2.62;63.22
69127;BME280;56688;50.234;19.292;2023-04-03T07:00:16;99150.99;;;2.59;62.81
69127;BME280;56688;50.234;19.292;2023-04-03T07:02:42;99155.54;;;2.52;62.43
69127;BME280;56688;50.234;19.292;2023-04-03T07:05:10;99158.42;;;2.47;62.44
69127;BME280;56688;50.234;19.292;2023-04-03T07:07:36;99163.83;;;2.41;62.65
69127;BME280;56688;50.234;19.292;2023-04-03T07:10:05;99167.67;;;2.37;62.62
69127;BME280;56688;50.234;19.292;2023-04-03T07:12:33;99169.39;;;2.33;62.16
69127;BME280;56688;50.234;19.292;2023-04-03T07:15:00;99171.38;;;2.30;62.49
69127;BME280;56688;50.234;19.292;2023-04-03T07:17:27;99173.33;;;2.27;62.57
69127;BME280;56688;50.234;19.292;2023-04-03T07:19:54;99179.36;;;2.25;62.49
69127;BME280;56688;50.234;19.292;2023-04-03T07:22:21;99175.58;;;2.28;62.43
69127;BME280;56688;50.234;19.292;2023-04-03T07:24:48;99182.53;;;2.29;62.46
69127;BME280;56688;50.234;19.292;2023-04-03T07:27:15;99190.34;;;2.33;61.83
69127;BME280;56688;50.234;19.292;2023-04-03T07:29:42;99191.45;;;2.39;61.65
69127;BME280;56688;50.234;19.292;2023-04-03T07:32:09;99194.34;;;2.42;61.44
69127;BME280;56688;50.234;19.292;2023-04-03T07:34:36;99192.85;;;2.43;61.08
69127;BME280;56688;50.234;19.292;2023-04-03T07:37:03;99196.30;;;2.46;61.07
69127;BME280;56688;50.234;19.292;2023-04-03T07:39:31;99193.05;;;2.52;61.54
69127;BME280;56688;50.234;19.292;2023-04-03T07:41:58;99194.81;;;2.58;61.53
69127;BME280;56688;50.234;19.292;2023-04-03T07:44:25;99195.73;;;2.62;60.73
69127;BME280;56688;50.234;19.292;2023-04-03T07:46:52;99190.44;;;2.67;60.00
69127;BME280;56688;50.234;19.292;2023-04-03T07:49:19;99192.06;;;2.73;59.47
69127;BME280;56688;50.234;19.292;2023-04-03T07:51:46;99185.94;;;2.77;59.49
69127;BME280;56688;50.234;19.292;2023-04-03T07:54:13;99191.29;;;2.80;58.27
69127;BME280;56688;50.234;19.292;2023-04-03T07:56:40;99191.21;;;2.86;57.56
69127;BME280;56688;50.234;19.292;2023-04-03T07:59:07;99195.71;;;2.93;57.35
69127;BME280;56688;50.234;19.292;2023-04-03T08:01:34;99190.78;;;3.02;57.81
69127;BME280;56688;50.234;19.292;2023-04-03T08:04:01;99195.45;;;3.08;57.08
69127;BME280;56688;50.234;19.292;2023-04-03T08:06:28;99198.28;;;3.14;57.26
69127;BME280;56688;50.234;19.292;2023-04-03T08:09:11;99197.15;;;3.23;57.46
69127;BME280;56688;50.234;19.292;2023-04-03T08:11:39;99190.95;;;3.32;57.19
69127;BME280;56688;50.234;19.292;2023-04-03T08:14:06;99189.57;;;3.47;57.28
69127;BME280;56688;50.234;19.292;2023-04-03T08:16:33;99191.68;;;3.60;56.20
69127;BME280;56688;50.234;19.292;2023-04-03T08:19:00;99192.63;;;3.78;56.71
69127;BME280;56688;50.234;19.292;2023-04-03T08:21:28;99191.21;;;3.95;55.55
69127;BME280;56688;50.234;19.292;2023-04-03T08:23:55;99199.02;;;4.15;54.20
69127;BME280;56688;50.234;19.292;2023-04-03T08:26:22;99196.08;;;4.39;53.82
69127;BME280;56688;50.234;19.292;2023-04-03T08:28:49;99195.37;;;4.63;53.46
69127;BME280;56688;50.234;19.292;2023-04-03T08:31:18;99195.27;;;4.81;53.13
69127;BME280;56688;50.234;19.292;2023-04-03T08:33:47;99193.86;;;4.96;51.49
69127;BME280;56688;50.234;19.292;2023-04-03T08:38:45;99195.42;;;5.26;50.04
69127;BME280;56688;50.234;19.292;2023-04-03T08:49:22;99207.60;;;5.89;47.78
69127;BME280;56688;50.234;19.292;2023-04-03T08:51:52;99210.14;;;6.00;46.93
69127;BME280;56688;50.234;19.292;2023-04-03T08:54:28;99213.17;;;6.05;46.84
69127;BME280;56688;50.234;19.292;2023-04-03T08:57:00;99219.02;;;6.13;46.29
69127;BME280;56688;50.234;19.292;2023-04-03T08:59:33;99219.98;;;6.20;45.73
69127;BME280;56688;50.234;19.292;2023-04-03T09:02:04;99222.14;;;6.30;45.42
69127;BME280;56688;50.234;19.292;2023-04-03T09:04:41;99223.28;;;6.33;44.39
69127;BME280;56688;50.234;19.292;2023-04-03T09:07:14;99220.70;;;6.34;44.80
69127;BME280;56688;50.234;19.292;2023-04-03T09:09:45;99218.77;;;6.40;44.55
69127;BME280;56688;50.234;19.292;2023-04-03T09:12:38;99219.61;;;6.50;45.03
69127;BME280;56688;50.234;19.292;2023-04-03T09:23:01;99216.45;;;7.86;42.17
69127;BME280;56688;50.234;19.292;2023-04-03T09:25:34;99217.11;;;8.06;41.39
69127;BME280;56688;50.234;19.292;2023-04-03T09:28:04;99225.16;;;8.28;40.83
69127;BME280;56688;50.234;19.292;2023-04-03T09:30:36;99223.77;;;8.54;40.81
69127;BME280;56688;50.234;19.292;2023-04-03T09:33:05;99222.84;;;8.83;40.03
69127;BME280;56688;50.234;19.292;2023-04-03T09:35:36;99223.39;;;9.20;40.75
69127;BME280;56688;50.234;19.292;2023-04-03T09:38:16;99224.42;;;9.45;39.57
69127;BME280;56688;50.234;19.292;2023-04-03T09:40:45;99229.36;;;9.59;39.52
69127;BME280;56688;50.234;19.292;2023-04-03T09:45:45;99227.61;;;9.74;38.68
69127;BME280;56688;50.234;19.292;2023-04-03T09:55:59;99222.99;;;9.97;36.65
69127;BME280;56688;50.234;19.292;2023-04-03T09:58:29;99224.89;;;9.91;35.71
69127;BME280;56688;50.234;19.292;2023-04-03T10:06:53;99233.77;;;9.60;36.10
69127;BME280;56688;50.234;19.292;2023-04-03T10:09:24;99235.70;;;9.60;38.12
69127;BME280;56688;50.234;19.292;2023-04-03T10:14:37;99232.36;;;9.79;36.45
69127;BME280;56688;50.234;19.292;2023-04-03T10:19:57;99229.66;;;9.99;36.00
69127;BME280;56688;50.234;19.292;2023-04-03T10:25:09;99227.55;;;9.94;35.04
69127;BME280;56688;50.234;19.292;2023-04-03T10:35:34;99233.75;;;9.71;35.43
69127;BME280;56688;50.234;19.292;2023-04-03T10:38:13;99232.74;;;9.71;36.34
69127;BME280;56688;50.234;19.292;2023-04-03T10:40:50;99230.22;;;9.81;36.20
69127;BME280;56688;50.234;19.292;2023-04-03T10:43:33;99225.02;;;9.94;36.56
69127;BME280;56688;50.234;19.292;2023-04-03T10:49:00;99217.21;;;10.11;35.99
69127;BME280;56688;50.234;19.292;2023-04-03T10:54:11;99213.17;;;9.86;34.93
69127;BME280;56688;50.234;19.292;2023-04-03T10:56:41;99210.18;;;10.03;34.95
69127;BME280;56688;50.234;19.292;2023-04-03T10:59:29;99210.63;;;10.12;34.77
69127;BME280;56688;50.234;19.292;2023-04-03T11:02:04;99215.82;;;10.10;34.85
69127;BME280;56688;50.234;19.292;2023-04-03T11:04:36;99221.55;;;9.98;34.79
69127;BME280;56688;50.234;19.292;2023-04-03T11:07:21;99226.94;;;9.73;34.30
69127;BME280;56688;50.234;19.292;2023-04-03T11:10:17;99224.04;;;9.46;35.61
69127;BME280;56688;50.234;19.292;2023-04-03T11:12:48;99229.17;;;9.33;36.04
69127;BME280;56688;50.234;19.292;2023-04-03T11:15:19;99223.34;;;9.36;35.47
69127;BME280;56688;50.234;19.292;2023-04-03T11:17:54;99221.75;;;9.59;35.22
69127;BME280;56688;50.234;19.292;2023-04-03T11:20:31;99218.30;;;9.73;35.87
69127;BME280;56688;50.234;19.292;2023-04-03T11:23:04;99212.65;;;9.71;35.25
69127;BME280;56688;50.234;19.292;2023-04-03T11:25:34;99217.27;;;9.51;35.22
69127;BME280;56688;50.234;19.292;2023-04-03T11:28:06;99219.40;;;9.28;35.37
69127;BME280;56688;50.234;19.292;2023-04-03T11:30:51;99218.72;;;9.09;34.26
69127;BME280;56688;50.234;19.292;2023-04-03T11:39:24;99195.75;;;9.82;34.00
69127;BME280;56688;50.234;19.292;2023-04-03T11:41:52;99199.30;;;10.41;33.69
69127;BME280;56688;50.234;19.292;2023-04-03T11:44:37;99198.84;;;10.64;32.49
69127;BME280;56688;50.234;19.292;2023-04-03T11:47:06;99202.52;;;10.53;33.35
69127;BME280;56688;50.234;19.292;2023-04-03T11:49:58;99200.94;;;10.34;32.35
69127;BME280;56688;50.234;19.292;2023-04-03T11:57:44;99189.47;;;11.31;32.23
69127;BME280;56688;50.234;19.292;2023-04-03T12:16:27;99186.80;;;11.60;30.72
69127;BME280;56688;50.234;19.292;2023-04-03T12:24:35;99180.56;;;11.34;32.08
69127;BME280;56688;50.234;19.292;2023-04-03T12:27:05;99177.27;;;11.58;32.02
69127;BME280;56688;50.234;19.292;2023-04-03T12:43:28;99175.92;;;11.80;30.13
69127;BME280;56688;50.234;19.292;2023-04-03T12:48:37;99170.73;;;11.54;31.20
69127;BME280;56688;50.234;19.292;2023-04-03T12:51:05;99166.71;;;12.41;30.56
69127;BME280;56688;50.234;19.292;2023-04-03T12:53:35;99160.28;;;13.25;29.77
69127;BME280;56688;50.234;19.292;2023-04-03T12:58:46;99176.77;;;12.83;28.81
69127;BME280;56688;50.234;19.292;2023-04-03T13:01:24;99177.78;;;12.29;28.88
69127;BME280;56688;50.234;19.292;2023-04-03T13:03:54;99181.70;;;11.93;29.84
69127;BME280;56688;50.234;19.292;2023-04-03T13:06:24;99175.95;;;12.52;30.40
69127;BME280;56688;50.234;19.292;2023-04-03T13:08:56;99168.23;;;13.19;28.82
69127;BME280;56688;50.234;19.292;2023-04-03T13:11:27;99160.40;;;13.07;28.80
69127;BME280;56688;50.234;19.292;2023-04-03T13:13:59;99170.80;;;12.71;28.14
69127;BME280;56688;50.234;19.292;2023-04-03T13:16:26;99171.58;;;12.24;28.45
69127;BME280;56688;50.234;19.292;2023-04-03T13:18:54;99168.55;;;11.76;28.80
69127;BME280;56688;50.234;19.292;2023-04-03T13:21:25;99173.13;;;11.30;29.45
69127;BME280;56688;50.234;19.292;2023-04-03T13:23:56;99175.01;;;10.90;29.99
69127;BME280;56688;50.234;19.292;2023-04-03T13:26:40;99176.13;;;10.57;30.57
69127;BME280;56688;50.234;19.292;2023-04-03T13:29:19;99175.73;;;10.43;31.79
69127;BME280;56688;50.234;19.292;2023-04-03T13:31:57;99176.70;;;10.94;30.99
69127;BME280;56688;50.234;19.292;2023-04-03T13:34:41;99178.31;;;10.98;31.43
69127;BME280;56688;50.234;19.292;2023-04-03T13:37:27;99185.00;;;10.72;30.75
69127;BME280;56688;50.234;19.292;2023-04-03T13:40:03;99185.76;;;10.41;30.58
69127;BME280;56688;50.234;19.292;2023-04-03T13:42:38;99187.35;;;10.23;31.69
69127;BME280;56688;50.234;19.292;2023-04-03T13:45:24;99187.61;;;10.24;31.73
69127;BME280;56688;50.234;19.292;2023-04-03T13:48:16;99192.52;;;10.07;31.26
69127;BME280;56688;50.234;19.292;2023-04-03T13:50:55;99201.28;;;9.61;32.36
69127;BME280;56688;50.234;19.292;2023-04-03T13:53:24;99202.40;;;9.20;32.45
69127;BME280;56688;50.234;19.292;2023-04-03T13:55:59;99203.71;;;8.89;33.45
69127;BME280;56688;50.234;19.292;2023-04-03T13:58:29;99206.17;;;8.67;34.65
69127;BME280;56688;50.234;19.292;2023-04-03T14:01:06;99207.02;;;8.48;33.82
69127;BME280;56688;50.234;19.292;2023-04-03T14:03:57;99205.37;;;8.30;34.48
69127;BME280;56688;50.234;19.292;2023-04-03T14:06:25;99200.79;;;8.13;35.38
69127;BME280;56688;50.234;19.292;2023-04-03T14:08:52;99205.86;;;8.04;35.59
69127;BME280;56688;50.234;19.292;2023-04-03T14:11:22;99204.27;;;7.98;35.88
69127;BME280;56688;50.234;19.292;2023-04-03T14:13:50;99201.83;;;7.88;35.97
69127;BME280;56688;50.234;19.292;2023-04-03T14:16:20;99199.92;;;7.92;35.75
69127;BME280;56688;50.234;19.292;2023-04-03T14:18:48;99198.38;;;8.01;35.30
69127;BME280;56688;50.234;19.292;2023-04-03T14:21:17;99198.25;;;8.17;35.33
69127;BME280;56688;50.234;19.292;2023-04-03T14:23:45;99198.51;;;8.16;35.90
69127;BME280;56688;50.234;19.292;2023-04-03T14:26:15;99201.63;;;8.04;35.21
69127;BME280;56688;50.234;19.292;2023-04-03T14:28:45;99194.99;;;7.86;34.87
69127;BME280;56688;50.234;19.292;2023-04-03T14:31:14;99203.69;;;7.68;35.15
69127;BME280;56688;50.234;19.292;2023-04-03T14:33:42;99201.54;;;7.82;35.86
69127;BME280;56688;50.234;19.292;2023-04-03T14:36:14;99197.86;;;8.48;34.93
69127;BME280;56688;50.234;19.292;2023-04-03T14:38:43;99192.11;;;9.25;33.11
69127;BME280;56688;50.234;19.292;2023-04-03T14:41:14;99192.55;;;9.44;32.37
69127;BME280;56688;50.234;19.292;2023-04-03T14:43:44;99198.17;;;9.37;31.74
69127;BME280;56688;50.234;19.292;2023-04-03T14:46:16;99199.15;;;9.09;31.59
69127;BME280;56688;50.234;19.292;2023-04-03T14:48:44;99200.38;;;8.74;31.94
69127;BME280;56688;50.234;19.292;2023-04-03T14:51:12;99200.85;;;8.40;32.53
69127;BME280;56688;50.234;19.292;2023-04-03T14:53:41;99204.21;;;8.09;32.87
69127;BME280;56688;50.234;19.292;2023-04-03T14:56:23;99199.99;;;7.91;34.11
69127;BME280;56688;50.234;19.292;2023-04-03T14:58:56;99196.29;;;7.82;34.24
69127;BME280;56688;50.234;19.292;2023-04-03T15:01:25;99193.85;;;7.76;35.43
69127;BME280;56688;50.234;19.292;2023-04-03T15:03:52;99192.66;;;7.61;34.90
69127;BME280;56688;50.234;19.292;2023-04-03T15:06:19;99197.02;;;7.41;34.77
69127;BME280;56688;50.234;19.292;2023-04-03T15:08:47;99199.61;;;7.19;34.96